sensor_id;sensor_type;location;lat;lon;timestamp;P1;durP1;ratioP1;P2;durP2;ratioP2
12818;SDS011;6474;53.474;9.894;2022-12-07T00:01:16;3.63;;;3.00;;
12818;SDS011;6474;53.474;9.894;2022-12-07T00:03:46;3.90;;;3.40;;
12818;SDS011;6474;53.474;9.894;2022-12-07T00:06:16;3.20;;;2.87;;
12818;SDS011;6474;53.474;9.894;2022-12-07T00:08:44;8.67;;;3.67;;
12818;SDS011;6474;53.474;9.894;2022-12-07T00:11:13;4.37;;;3.97;;
12818;SDS011;6474;53.474;9.894;2022-12-07T00:13:42;4.30;;;2.90;;
12818;SDS011;6474;53.474;9.894;2022-12-07T00:16:12;3.20;;;3.00;;
12818;SDS011;6474;53.474;9.894;2022-12-07T00:18:42;2.70;;;2.53;;
12818;SDS011;6474;53.474;9.894;2022-12-07T00:21:11;2.27;;;2.27;;
12818;SDS011;6474;53.474;9.894;2022-12-07T00:23:40;4.13;;;2.53;;
12818;SDS011;6474;53.474;9.894;2022-12-07T00:26:10;4.93;;;3.90;;
12818;SDS011;6474;53.474;9.894;2022-12-07T00:28:39;2.67;;;2.50;;
12818;SDS011;6474;53.474;9.894;2022-12-07T00:31:08;3.80;;;3.47;;
12818;SDS011;6474;53.474;9.894;2022-12-07T00:33:39;3.73;;;3.23;;
12818;SDS011;6474;53.474;9.894;2022-12-07T00:36:07;3.40;;;3.10;;
12818;SDS011;6474;53.474;9.894;2022-12-07T00:38:37;3.43;;;3.10;;
12818;SDS011;6474;53.474;9.894;2022-12-07T00:41:06;3.43;;;3.03;;
12818;SDS011;6474;53.474;9.894;2022-12-07T00:43:36;3.20;;;2.67;;
12818;SDS011;6474;53.474;9.894;2022-12-07T00:46:04;4.43;;;2.73;;
12818;SDS011;6474;53.474;9.894;2022-12-07T00:48:32;4.30;;;2.70;;
12818;SDS011;6474;53.474;9.894;2022-12-07T00:51:02;2.63;;;2.43;;
12818;SDS011;6474;53.474;9.894;2022-12-07T00:53:30;3.27;;;2.50;;
12818;SDS011;6474;53.474;9.894;2022-12-07T00:56:07;2.57;;;2.47;;
12818;SDS011;6474;53.474;9.894;2022-12-07T00:58:35;2.43;;;2.23;;
12818;SDS011;6474;53.474;9.894;2022-12-07T01:01:04;3.50;;;2.83;;
12818;SDS011;6474;53.474;9.894;2022-12-07T01:03:34;2.33;;;2.23;;
12818;SDS011;6474;53.474;9.894;2022-12-07T01:06:04;2.90;;;2.70;;
12818;SDS011;6474;53.474;9.894;2022-12-07T01:08:32;2.43;;;2.37;;
12818;SDS011;6474;53.474;9.894;2022-12-07T01:11:01;3.43;;;3.13;;
12818;SDS011;6474;53.474;9.894;2022-12-07T01:13:30;2.43;;;2.33;;
12818;SDS011;6474;53.474;9.894;2022-12-07T01:15:59;2.60;;;1.90;;
12818;SDS011;6474;53.474;9.894;2022-12-07T01:18:31;5.13;;;2.77;;
12818;SDS011;6474;53.474;9.894;2022-12-07T01:21:01;3.83;;;3.10;;
12818;SDS011;6474;53.474;9.894;2022-12-07T01:23:38;2.33;;;2.23;;
12818;SDS011;6474;53.474;9.894;2022-12-07T01:26:08;2.20;;;2.10;;
12818;SDS011;6474;53.474;9.894;2022-12-07T01:28:38;3.63;;;2.50;;
12818;SDS011;6474;53.474;9.894;2022-12-07T01:31:10;5.00;;;3.07;;
12818;SDS011;6474;53.474;9.894;2022-12-07T01:33:41;10.67;;;2.17;;
12818;SDS011;6474;53.474;9.894;2022-12-07T01:36:14;8.13;;;2.60;;
12818;SDS011;6474;53.474;9.894;2022-12-07T01:38:45;2.90;;;2.70;;
12818;SDS011;6474;53.474;9.894;2022-12-07T01:41:14;3.10;;;2.27;;
12818;SDS011;6474;53.474;9.894;2022-12-07T01:46:36;2.10;;;1.73;;
12818;SDS011;6474;53.474;9.894;2022-12-07T01:49:04;2.50;;;2.30;;
12818;SDS011;6474;53.474;9.894;2022-12-07T01:51:37;3.00;;;2.80;;
12818;SDS011;6474;53.474;9.894;2022-12-07T01:54:07;1.63;;;1.53;;
12818;SDS011;6474;53.474;9.894;2022-12-07T01:56:37;1.83;;;1.73;;
12818;SDS011;6474;53.474;9.894;2022-12-07T01:59:07;1.77;;;1.77;;
12818;SDS011;6474;53.474;9.894;2022-12-07T02:01:35;2.13;;;2.03;;
12818;SDS011;6474;53.474;9.894;2022-12-07T02:04:03;2.37;;;2.20;;
12818;SDS011;6474;53.474;9.894;2022-12-07T02:06:33;8.90;;;2.17;;
12818;SDS011;6474;53.474;9.894;2022-12-07T02:09:04;1.90;;;1.83;;
12818;SDS011;6474;53.474;9.894;2022-12-07T02:11:32;5.13;;;2.53;;
12818;SDS011;6474;53.474;9.894;2022-12-07T02:14:00;2.13;;;2.03;;
12818;SDS011;6474;53.474;9.894;2022-12-07T02:16:29;1.70;;;1.70;;
12818;SDS011;6474;53.474;9.894;2022-12-07T02:19:08;2.07;;;1.90;;
12818;SDS011;6474;53.474;9.894;2022-12-07T02:21:54;8.33;;;2.20;;
12818;SDS011;6474;53.474;9.894;2022-12-07T02:24:34;1.70;;;1.60;;
12818;SDS011;6474;53.474;9.894;2022-12-07T02:27:24;1.87;;;1.77;;
12818;SDS011;6474;53.474;9.894;2022-12-07T02:30:08;0.73;;;0.73;;
12818;SDS011;6474;53.474;9.894;2022-12-07T02:32:40;1.90;;;1.53;;
12818;SDS011;6474;53.474;9.894;2022-12-07T02:35:15;0.83;;;0.83;;
12818;SDS011;6474;53.474;9.894;2022-12-07T02:37:48;1.30;;;1.30;;
12818;SDS011;6474;53.474;9.894;2022-12-07T02:40:25;1.53;;;1.53;;
12818;SDS011;6474;53.474;9.894;2022-12-07T02:42:58;4.37;;;1.70;;
12818;SDS011;6474;53.474;9.894;2022-12-07T02:45:32;1.50;;;1.43;;
12818;SDS011;6474;53.474;9.894;2022-12-07T02:48:04;0.87;;;0.87;;
12818;SDS011;6474;53.474;9.894;2022-12-07T02:50:34;1.43;;;1.40;;
12818;SDS011;6474;53.474;9.894;2022-12-07T02:53:02;1.33;;;1.10;;
12818;SDS011;6474;53.474;9.894;2022-12-07T02:55:31;0.90;;;0.90;;
12818;SDS011;6474;53.474;9.894;2022-12-07T02:58:17;1.07;;;1.00;;
12818;SDS011;6474;53.474;9.894;2022-12-07T03:00:58;0.47;;;0.47;;
12818;SDS011;6474;53.474;9.894;2022-12-07T03:03:36;2.53;;;1.40;;
12818;SDS011;6474;53.474;9.894;2022-12-07T03:06:08;0.80;;;0.80;;
12818;SDS011;6474;53.474;9.894;2022-12-07T03:08:48;0.83;;;0.83;;
12818;SDS011;6474;53.474;9.894;2022-12-07T03:11:21;0.63;;;0.63;;
12818;SDS011;6474;53.474;9.894;2022-12-07T03:13:54;1.30;;;1.30;;
12818;SDS011;6474;53.474;9.894;2022-12-07T03:16:28;1.03;;;0.90;;
12818;SDS011;6474;53.474;9.894;2022-12-07T03:19:00;0.70;;;0.70;;
12818;SDS011;6474;53.474;9.894;2022-12-07T03:21:33;7.20;;;0.97;;
12818;SDS011;6474;53.474;9.894;2022-12-07T03:24:05;0.30;;;0.30;;
12818;SDS011;6474;53.474;9.894;2022-12-07T03:26:37;5.50;;;1.17;;
12818;SDS011;6474;53.474;9.894;2022-12-07T03:29:09;1.17;;;1.10;;
12818;SDS011;6474;53.474;9.894;2022-12-07T03:31:43;0.50;;;0.50;;
12818;SDS011;6474;53.474;9.894;2022-12-07T03:34:16;0.70;;;0.33;;
12818;SDS011;6474;53.474;9.894;2022-12-07T03:36:49;0.63;;;0.63;;
12818;SDS011;6474;53.474;9.894;2022-12-07T03:39:23;1.43;;;1.33;;
12818;SDS011;6474;53.474;9.894;2022-12-07T03:41:55;0.97;;;0.97;;
12818;SDS011;6474;53.474;9.894;2022-12-07T03:44:25;0.83;;;0.83;;
12818;SDS011;6474;53.474;9.894;2022-12-07T03:46:57;0.60;;;0.60;;
12818;SDS011;6474;53.474;9.894;2022-12-07T03:49:30;0.60;;;0.60;;
12818;SDS011;6474;53.474;9.894;2022-12-07T03:52:02;0.83;;;0.50;;
12818;SDS011;6474;53.474;9.894;2022-12-07T03:54:36;0.13;;;0.13;;
12818;SDS011;6474;53.474;9.894;2022-12-07T03:57:07;0.40;;;0.40;;
12818;SDS011;6474;53.474;9.894;2022-12-07T03:59:37;0.57;;;0.57;;
12818;SDS011;6474;53.474;9.894;2022-12-07T04:02:08;3.60;;;0.77;;
12818;SDS011;6474;53.474;9.894;2022-12-07T04:04:39;2.30;;;0.53;;
12818;SDS011;6474;53.474;9.894;2022-12-07T04:07:08;0.57;;;0.57;;
12818;SDS011;6474;53.474;9.894;2022-12-07T04:09:36;0.63;;;0.63;;
12818;SDS011;6474;53.474;9.894;2022-12-07T04:12:04;0.60;;;0.60;;
12818;SDS011;6474;53.474;9.894;2022-12-07T04:14:32;0.50;;;0.50;;
12818;SDS011;6474;53.474;9.894;2022-12-07T04:17:00;0.47;;;0.47;;
12818;SDS011;6474;53.474;9.894;2022-12-07T04:19:31;0.27;;;0.27;;
12818;SDS011;6474;53.474;9.894;2022-12-07T04:22:00;3.20;;;0.47;;
12818;SDS011;6474;53.474;9.894;2022-12-07T04:24:30;0.13;;;0.13;;
12818;SDS011;6474;53.474;9.894;2022-12-07T04:26:58;7.83;;;0.80;;
12818;SDS011;6474;53.474;9.894;2022-12-07T04:29:26;0.60;;;0.60;;
12818;SDS011;6474;53.474;9.894;2022-12-07T04:31:54;6.60;;;1.43;;
12818;SDS011;6474;53.474;9.894;2022-12-07T04:34:22;0.30;;;0.30;;
12818;SDS011;6474;53.474;9.894;2022-12-07T04:36:51;5.83;;;0.70;;
12818;SDS011;6474;53.474;9.894;2022-12-07T04:39:19;0.37;;;0.37;;
12818;SDS011;6474;53.474;9.894;2022-12-07T04:41:49;1.20;;;0.60;;
12818;SDS011;6474;53.474;9.894;2022-12-07T04:44:17;1.70;;;0.40;;
12818;SDS011;6474;53.474;9.894;2022-12-07T04:46:45;0.77;;;0.30;;
12818;SDS011;6474;53.474;9.894;2022-12-07T04:49:14;0.63;;;0.63;;
12818;SDS011;6474;53.474;9.894;2022-12-07T04:51:43;0.27;;;0.27;;
12818;SDS011;6474;53.474;9.894;2022-12-07T04:54:12;2.90;;;0.90;;
12818;SDS011;6474;53.474;9.894;2022-12-07T04:56:41;0.90;;;0.90;;
12818;SDS011;6474;53.474;9.894;2022-12-07T04:59:09;0.40;;;0.40;;
12818;SDS011;6474;53.474;9.894;2022-12-07T05:01:38;1.60;;;0.90;;
12818;SDS011;6474;53.474;9.894;2022-12-07T05:04:06;0.40;;;0.40;;
12818;SDS011;6474;53.474;9.894;2022-12-07T05:06:35;0.30;;;0.30;;
12818;SDS011;6474;53.474;9.894;2022-12-07T05:09:03;2.90;;;0.93;;
12818;SDS011;6474;53.474;9.894;2022-12-07T05:11:32;0.20;;;0.20;;
12818;SDS011;6474;53.474;9.894;2022-12-07T05:14:08;1.03;;;0.77;;
12818;SDS011;6474;53.474;9.894;2022-12-07T05:16:37;4.60;;;0.70;;
12818;SDS011;6474;53.474;9.894;2022-12-07T05:19:06;0.10;;;0.10;;
12818;SDS011;6474;53.474;9.894;2022-12-07T05:21:34;0.47;;;0.47;;
12818;SDS011;6474;53.474;9.894;2022-12-07T05:24:03;0.33;;;0.33;;
12818;SDS011;6474;53.474;9.894;2022-12-07T05:26:32;0.57;;;0.57;;
12818;SDS011;6474;53.474;9.894;2022-12-07T05:29:01;0.40;;;0.40;;
12818;SDS011;6474;53.474;9.894;2022-12-07T05:31:30;0.50;;;0.50;;
12818;SDS011;6474;53.474;9.894;2022-12-07T05:33:58;0.30;;;0.30;;
12818;SDS011;6474;53.474;9.894;2022-12-07T05:36:26;0.60;;;0.60;;
12818;SDS011;6474;53.474;9.894;2022-12-07T05:38:57;0.33;;;0.33;;
12818;SDS011;6474;53.474;9.894;2022-12-07T05:41:25;0.60;;;0.60;;
12818;SDS011;6474;53.474;9.894;2022-12-07T05:44:11;1.13;;;0.73;;
12818;SDS011;6474;53.474;9.894;2022-12-07T05:46:41;0.23;;;0.23;;
12818;SDS011;6474;53.474;9.894;2022-12-07T05:49:09;0.70;;;0.70;;
12818;SDS011;6474;53.474;9.894;2022-12-07T05:51:36;0.27;;;0.27;;
12818;SDS011;6474;53.474;9.894;2022-12-07T05:54:04;0.30;;;0.30;;
12818;SDS011;6474;53.474;9.894;2022-12-07T05:56:32;0.40;;;0.40;;
12818;SDS011;6474;53.474;9.894;2022-12-07T05:59:00;0.83;;;0.70;;
12818;SDS011;6474;53.474;9.894;2022-12-07T06:01:46;0.20;;;0.20;;
12818;SDS011;6474;53.474;9.894;2022-12-07T06:04:15;0.53;;;0.53;;
12818;SDS011;6474;53.474;9.894;2022-12-07T06:06:46;0.50;;;0.50;;
12818;SDS011;6474;53.474;9.894;2022-12-07T06:09:14;0.77;;;0.77;;
12818;SDS011;6474;53.474;9.894;2022-12-07T06:11:42;0.73;;;0.73;;
12818;SDS011;6474;53.474;9.894;2022-12-07T06:14:28;0.33;;;0.30;;
12818;SDS011;6474;53.474;9.894;2022-12-07T06:16:57;0.93;;;0.93;;
12818;SDS011;6474;53.474;9.894;2022-12-07T06:19:26;0.43;;;0.43;;
12818;SDS011;6474;53.474;9.894;2022-12-07T06:21:54;1.30;;;1.30;;
12818;SDS011;6474;53.474;9.894;2022-12-07T06:24:22;0.60;;;0.60;;
12818;SDS011;6474;53.474;9.894;2022-12-07T06:26:50;0.87;;;0.87;;
12818;SDS011;6474;53.474;9.894;2022-12-07T06:29:20;1.00;;;0.80;;
12818;SDS011;6474;53.474;9.894;2022-12-07T06:31:48;1.10;;;0.87;;
12818;SDS011;6474;53.474;9.894;2022-12-07T06:34:21;0.70;;;0.70;;
12818;SDS011;6474;53.474;9.894;2022-12-07T06:36:50;0.37;;;0.37;;
12818;SDS011;6474;53.474;9.894;2022-12-07T06:39:21;0.43;;;0.43;;
12818;SDS011;6474;53.474;9.894;2022-12-07T06:41:50;0.40;;;0.40;;
12818;SDS011;6474;53.474;9.894;2022-12-07T06:44:19;0.23;;;0.23;;
12818;SDS011;6474;53.474;9.894;2022-12-07T06:46:47;0.50;;;0.50;;
12818;SDS011;6474;53.474;9.894;2022-12-07T06:49:16;0.37;;;0.37;;
12818;SDS011;6474;53.474;9.894;2022-12-07T06:51:45;0.77;;;0.77;;
12818;SDS011;6474;53.474;9.894;2022-12-07T06:54:13;0.40;;;0.40;;
12818;SDS011;6474;53.474;9.894;2022-12-07T06:56:42;0.40;;;0.40;;
12818;SDS011;6474;53.474;9.894;2022-12-07T06:59:10;0.20;;;0.20;;
12818;SDS011;6474;53.474;9.894;2022-12-07T07:01:37;0.30;;;0.30;;
12818;SDS011;6474;53.474;9.894;2022-12-07T07:04:05;0.40;;;0.40;;
12818;SDS011;6474;53.474;9.894;2022-12-07T07:06:33;0.50;;;0.50;;
12818;SDS011;6474;53.474;9.894;2022-12-07T07:09:02;0.50;;;0.50;;
12818;SDS011;6474;53.474;9.894;2022-12-07T07:11:30;0.70;;;0.70;;
12818;SDS011;6474;53.474;9.894;2022-12-07T07:13:58;0.50;;;0.50;;
12818;SDS011;6474;53.474;9.894;2022-12-07T07:16:28;0.30;;;0.30;;
12818;SDS011;6474;53.474;9.894;2022-12-07T07:18:57;0.30;;;0.30;;
12818;SDS011;6474;53.474;9.894;2022-12-07T07:21:25;1.40;;;0.83;;
12818;SDS011;6474;53.474;9.894;2022-12-07T07:23:52;0.70;;;0.70;;
12818;SDS011;6474;53.474;9.894;2022-12-07T07:26:22;0.50;;;0.50;;
12818;SDS011;6474;53.474;9.894;2022-12-07T07:28:49;2.13;;;0.27;;
12818;SDS011;6474;53.474;9.894;2022-12-07T07:31:17;0.50;;;0.50;;
12818;SDS011;6474;53.474;9.894;2022-12-07T07:33:45;0.47;;;0.47;;
12818;SDS011;6474;53.474;9.894;2022-12-07T07:36:13;0.53;;;0.53;;
12818;SDS011;6474;53.474;9.894;2022-12-07T07:38:41;0.30;;;0.30;;
12818;SDS011;6474;53.474;9.894;2022-12-07T07:41:09;14.33;;;0.90;;
12818;SDS011;6474;53.474;9.894;2022-12-07T07:43:38;0.20;;;0.20;;
12818;SDS011;6474;53.474;9.894;2022-12-07T07:46:06;0.60;;;0.60;;
12818;SDS011;6474;53.474;9.894;2022-12-07T07:48:34;0.10;;;0.10;;
12818;SDS011;6474;53.474;9.894;2022-12-07T07:51:04;0.10;;;0.10;;
12818;SDS011;6474;53.474;9.894;2022-12-07T07:53:33;0.53;;;0.53;;
12818;SDS011;6474;53.474;9.894;2022-12-07T07:56:00;0.53;;;0.53;;
12818;SDS011;6474;53.474;9.894;2022-12-07T07:58:28;2.20;;;0.80;;
12818;SDS011;6474;53.474;9.894;2022-12-07T08:00:57;1.23;;;0.60;;
12818;SDS011;6474;53.474;9.894;2022-12-07T08:03:31;0.47;;;0.47;;
12818;SDS011;6474;53.474;9.894;2022-12-07T08:05:58;1.33;;;0.70;;
12818;SDS011;6474;53.474;9.894;2022-12-07T08:08:26;0.90;;;0.23;;
12818;SDS011;6474;53.474;9.894;2022-12-07T08:10:54;0.30;;;0.23;;
12818;SDS011;6474;53.474;9.894;2022-12-07T08:13:22;0.20;;;0.20;;
12818;SDS011;6474;53.474;9.894;2022-12-07T08:15:58;4.33;;;1.37;;
12818;SDS011;6474;53.474;9.894;2022-12-07T08:18:39;0.20;;;0.20;;
12818;SDS011;6474;53.474;9.894;2022-12-07T08:21:09;0.23;;;0.23;;
12818;SDS011;6474;53.474;9.894;2022-12-07T08:23:38;0.40;;;0.40;;
12818;SDS011;6474;53.474;9.894;2022-12-07T08:26:07;8.70;;;0.30;;
12818;SDS011;6474;53.474;9.894;2022-12-07T08:28:36;0.67;;;0.67;;
12818;SDS011;6474;53.474;9.894;2022-12-07T08:31:08;0.50;;;0.50;;
12818;SDS011;6474;53.474;9.894;2022-12-07T08:33:38;2.03;;;0.33;;
12818;SDS011;6474;53.474;9.894;2022-12-07T08:36:08;0.00;;;0.00;;
12818;SDS011;6474;53.474;9.894;2022-12-07T08:38:38;5.93;;;0.87;;
12818;SDS011;6474;53.474;9.894;2022-12-07T08:41:16;0.13;;;0.13;;
12818;SDS011;6474;53.474;9.894;2022-12-07T08:43:44;0.30;;;0.30;;
12818;SDS011;6474;53.474;9.894;2022-12-07T08:46:17;0.60;;;0.60;;
12818;SDS011;6474;53.474;9.894;2022-12-07T08:48:48;1.23;;;0.43;;
12818;SDS011;6474;53.474;9.894;2022-12-07T08:51:20;0.40;;;0.40;;
12818;SDS011;6474;53.474;9.894;2022-12-07T08:53:49;1.13;;;0.50;;
12818;SDS011;6474;53.474;9.894;2022-12-07T08:56:18;1.93;;;0.63;;
12818;SDS011;6474;53.474;9.894;2022-12-07T08:58:47;0.27;;;0.27;;
12818;SDS011;6474;53.474;9.894;2022-12-07T09:01:17;0.77;;;0.77;;
12818;SDS011;6474;53.474;9.894;2022-12-07T09:03:45;0.87;;;0.50;;
12818;SDS011;6474;53.474;9.894;2022-12-07T09:06:13;0.53;;;0.40;;
12818;SDS011;6474;53.474;9.894;2022-12-07T09:08:41;0.40;;;0.40;;
12818;SDS011;6474;53.474;9.894;2022-12-07T09:11:13;0.27;;;0.27;;
12818;SDS011;6474;53.474;9.894;2022-12-07T09:13:41;0.73;;;0.73;;
12818;SDS011;6474;53.474;9.894;2022-12-07T09:16:08;2.13;;;0.60;;
12818;SDS011;6474;53.474;9.894;2022-12-07T09:18:38;0.93;;;0.47;;
12818;SDS011;6474;53.474;9.894;2022-12-07T09:21:06;1.07;;;0.50;;
12818;SDS011;6474;53.474;9.894;2022-12-07T09:23:33;0.60;;;0.57;;
12818;SDS011;6474;53.474;9.894;2022-12-07T09:26:01;3.50;;;0.50;;
12818;SDS011;6474;53.474;9.894;2022-12-07T09:28:36;0.27;;;0.27;;
12818;SDS011;6474;53.474;9.894;2022-12-07T09:31:04;1.50;;;0.43;;
12818;SDS011;6474;53.474;9.894;2022-12-07T09:33:54;7.27;;;0.60;;
12818;SDS011;6474;53.474;9.894;2022-12-07T09:36:24;1.23;;;0.50;;
12818;SDS011;6474;53.474;9.894;2022-12-07T09:38:52;0.50;;;0.50;;
12818;SDS011;6474;53.474;9.894;2022-12-07T09:41:20;0.10;;;0.10;;
12818;SDS011;6474;53.474;9.894;2022-12-07T09:43:49;0.30;;;0.30;;
12818;SDS011;6474;53.474;9.894;2022-12-07T09:46:18;0.30;;;0.30;;
12818;SDS011;6474;53.474;9.894;2022-12-07T09:48:48;0.30;;;0.30;;
12818;SDS011;6474;53.474;9.894;2022-12-07T09:51:18;0.70;;;0.67;;
12818;SDS011;6474;53.474;9.894;2022-12-07T09:53:50;0.40;;;0.40;;
12818;SDS011;6474;53.474;9.894;2022-12-07T09:56:19;0.20;;;0.20;;
12818;SDS011;6474;53.474;9.894;2022-12-07T09:58:47;2.57;;;0.30;;
12818;SDS011;6474;53.474;9.894;2022-12-07T10:01:16;0.20;;;0.20;;
12818;SDS011;6474;53.474;9.894;2022-12-07T10:03:48;0.50;;;0.50;;
12818;SDS011;6474;53.474;9.894;2022-12-07T10:06:19;0.10;;;0.10;;
12818;SDS011;6474;53.474;9.894;2022-12-07T10:08:47;0.20;;;0.20;;
12818;SDS011;6474;53.474;9.894;2022-12-07T10:11:15;6.77;;;0.40;;
12818;SDS011;6474;53.474;9.894;2022-12-07T10:13:44;0.20;;;0.20;;
12818;SDS011;6474;53.474;9.894;2022-12-07T10:16:31;1.57;;;0.30;;
12818;SDS011;6474;53.474;9.894;2022-12-07T10:19:20;0.20;;;0.20;;
12818;SDS011;6474;53.474;9.894;2022-12-07T10:24:43;0.10;;;0.10;;
12818;SDS011;6474;53.474;9.894;2022-12-07T10:27:17;0.13;;;0.13;;
12818;SDS011;6474;53.474;9.894;2022-12-07T10:29:48;0.20;;;0.20;;
12818;SDS011;6474;53.474;9.894;2022-12-07T10:32:28;0.40;;;0.40;;
12818;SDS011;6474;53.474;9.894;2022-12-07T10:37:54;1.40;;;0.50;;
12818;SDS011;6474;53.474;9.894;2022-12-07T10:40:31;0.30;;;0.30;;
12818;SDS011;6474;53.474;9.894;2022-12-07T10:43:01;0.30;;;0.30;;
12818;SDS011;6474;53.474;9.894;2022-12-07T10:45:30;0.70;;;0.70;;
12818;SDS011;6474;53.474;9.894;2022-12-07T10:48:08;0.53;;;0.37;;
12818;SDS011;6474;53.474;9.894;2022-12-07T10:50:45;0.20;;;0.20;;
12818;SDS011;6474;53.474;9.894;2022-12-07T10:53:27;6.33;;;0.67;;
12818;SDS011;6474;53.474;9.894;2022-12-07T10:56:18;0.30;;;0.30;;
12818;SDS011;6474;53.474;9.894;2022-12-07T10:59:24;1.43;;;0.33;;
12818;SDS011;6474;53.474;9.894;2022-12-07T11:02:21;0.20;;;0.20;;
12818;SDS011;6474;53.474;9.894;2022-12-07T11:04:59;1.30;;;0.33;;
12818;SDS011;6474;53.474;9.894;2022-12-07T11:07:37;0.33;;;0.13;;
12818;SDS011;6474;53.474;9.894;2022-12-07T11:10:24;2.80;;;0.50;;
12818;SDS011;6474;53.474;9.894;2022-12-07T11:13:02;0.50;;;0.50;;
12818;SDS011;6474;53.474;9.894;2022-12-07T11:15:46;3.50;;;0.57;;
12818;SDS011;6474;53.474;9.894;2022-12-07T11:18:27;0.10;;;0.10;;
12818;SDS011;6474;53.474;9.894;2022-12-07T11:21:00;0.40;;;0.40;;
12818;SDS011;6474;53.474;9.894;2022-12-07T11:23:39;0.47;;;0.47;;
12818;SDS011;6474;53.474;9.894;2022-12-07T11:26:18;0.87;;;0.40;;
12818;SDS011;6474;53.474;9.894;2022-12-07T11:29:05;0.40;;;0.40;;
12818;SDS011;6474;53.474;9.894;2022-12-07T11:31:48;15.53;;;0.73;;
12818;SDS011;6474;53.474;9.894;2022-12-07T11:34:27;2.13;;;0.37;;
12818;SDS011;6474;53.474;9.894;2022-12-07T11:37:03;3.17;;;0.73;;
12818;SDS011;6474;53.474;9.894;2022-12-07T11:39:40;0.30;;;0.30;;
12818;SDS011;6474;53.474;9.894;2022-12-07T11:42:19;3.87;;;0.40;;
12818;SDS011;6474;53.474;9.894;2022-12-07T11:44:50;0.20;;;0.20;;
12818;SDS011;6474;53.474;9.894;2022-12-07T11:47:22;0.30;;;0.30;;
12818;SDS011;6474;53.474;9.894;2022-12-07T11:50:01;0.10;;;0.10;;
12818;SDS011;6474;53.474;9.894;2022-12-07T11:52:42;0.20;;;0.20;;
12818;SDS011;6474;53.474;9.894;2022-12-07T11:55:17;0.30;;;0.30;;
12818;SDS011;6474;53.474;9.894;2022-12-07T11:57:52;0.33;;;0.33;;
12818;SDS011;6474;53.474;9.894;2022-12-07T12:00:25;0.90;;;0.70;;
12818;SDS011;6474;53.474;9.894;2022-12-07T12:02:54;0.17;;;0.17;;
12818;SDS011;6474;53.474;9.894;2022-12-07T12:05:28;0.20;;;0.20;;
12818;SDS011;6474;53.474;9.894;2022-12-07T12:07:59;6.67;;;0.40;;
12818;SDS011;6474;53.474;9.894;2022-12-07T12:10:55;1.10;;;0.57;;
12818;SDS011;6474;53.474;9.894;2022-12-07T12:13:50;0.40;;;0.40;;
12818;SDS011;6474;53.474;9.894;2022-12-07T12:17:15;0.27;;;0.27;;
12818;SDS011;6474;53.474;9.894;2022-12-07T12:19:57;0.40;;;0.40;;
12818;SDS011;6474;53.474;9.894;2022-12-07T12:22:32;0.33;;;0.33;;
12818;SDS011;6474;53.474;9.894;2022-12-07T12:25:04;0.40;;;0.40;;
12818;SDS011;6474;53.474;9.894;2022-12-07T12:27:35;2.17;;;0.43;;
12818;SDS011;6474;53.474;9.894;2022-12-07T12:30:07;2.43;;;0.63;;
12818;SDS011;6474;53.474;9.894;2022-12-07T12:32:53;0.73;;;0.73;;
12818;SDS011;6474;53.474;9.894;2022-12-07T12:35:31;0.40;;;0.40;;
12818;SDS011;6474;53.474;9.894;2022-12-07T12:40:53;0.93;;;0.40;;
12818;SDS011;6474;53.474;9.894;2022-12-07T12:49:30;4.30;;;0.53;;
12818;SDS011;6474;53.474;9.894;2022-12-07T12:58:35;0.20;;;0.20;;
12818;SDS011;6474;53.474;9.894;2022-12-07T13:22:44;0.40;;;0.40;;
12818;SDS011;6474;53.474;9.894;2022-12-07T13:25:22;0.83;;;0.20;;
12818;SDS011;6474;53.474;9.894;2022-12-07T13:27:59;0.30;;;0.30;;
12818;SDS011;6474;53.474;9.894;2022-12-07T13:30:29;0.20;;;0.20;;
12818;SDS011;6474;53.474;9.894;2022-12-07T13:32:58;0.63;;;0.47;;
12818;SDS011;6474;53.474;9.894;2022-12-07T13:35:31;0.33;;;0.20;;
12818;SDS011;6474;53.474;9.894;2022-12-07T13:38:01;0.60;;;0.60;;
12818;SDS011;6474;53.474;9.894;2022-12-07T13:40:33;0.10;;;0.10;;
12818;SDS011;6474;53.474;9.894;2022-12-07T13:43:02;0.20;;;0.20;;
12818;SDS011;6474;53.474;9.894;2022-12-07T13:45:31;0.23;;;0.23;;
12818;SDS011;6474;53.474;9.894;2022-12-07T13:48:16;0.33;;;0.33;;
12818;SDS011;6474;53.474;9.894;2022-12-07T13:50:55;1.00;;;0.40;;
12818;SDS011;6474;53.474;9.894;2022-12-07T13:53:24;1.60;;;0.40;;
12818;SDS011;6474;53.474;9.894;2022-12-07T13:55:57;0.33;;;0.33;;
12818;SDS011;6474;53.474;9.894;2022-12-07T13:58:27;0.40;;;0.40;;
12818;SDS011;6474;53.474;9.894;2022-12-07T14:00:58;0.23;;;0.23;;
12818;SDS011;6474;53.474;9.894;2022-12-07T14:03:28;0.73;;;0.50;;
12818;SDS011;6474;53.474;9.894;2022-12-07T14:09:05;0.73;;;0.73;;
12818;SDS011;6474;53.474;9.894;2022-12-07T14:11:45;0.30;;;0.30;;
12818;SDS011;6474;53.474;9.894;2022-12-07T14:14:15;2.93;;;0.30;;
12818;SDS011;6474;53.474;9.894;2022-12-07T14:16:55;1.33;;;0.50;;
12818;SDS011;6474;53.474;9.894;2022-12-07T14:22:19;25.77;;;0.77;;
12818;SDS011;6474;53.474;9.894;2022-12-07T14:24:58;0.30;;;0.30;;
12818;SDS011;6474;53.474;9.894;2022-12-07T14:27:32;0.50;;;0.50;;
12818;SDS011;6474;53.474;9.894;2022-12-07T14:30:02;0.20;;;0.20;;
12818;SDS011;6474;53.474;9.894;2022-12-07T14:32:31;1.10;;;0.50;;
12818;SDS011;6474;53.474;9.894;2022-12-07T14:35:02;0.80;;;0.80;;
12818;SDS011;6474;53.474;9.894;2022-12-07T14:37:36;0.38;;;0.38;;
12818;SDS011;6474;53.474;9.894;2022-12-07T14:40:05;5.00;;;0.77;;
12818;SDS011;6474;53.474;9.894;2022-12-07T14:42:35;0.47;;;0.47;;
12818;SDS011;6474;53.474;9.894;2022-12-07T14:45:05;0.37;;;0.37;;
12818;SDS011;6474;53.474;9.894;2022-12-07T14:47:40;1.07;;;0.33;;
12818;SDS011;6474;53.474;9.894;2022-12-07T14:50:27;1.90;;;1.00;;
12818;SDS011;6474;53.474;9.894;2022-12-07T14:52:58;0.60;;;0.60;;
12818;SDS011;6474;53.474;9.894;2022-12-07T14:55:49;0.73;;;0.70;;
12818;SDS011;6474;53.474;9.894;2022-12-07T14:58:18;0.97;;;0.70;;
12818;SDS011;6474;53.474;9.894;2022-12-07T15:00:46;0.90;;;0.90;;
12818;SDS011;6474;53.474;9.894;2022-12-07T15:03:14;1.90;;;0.97;;
12818;SDS011;6474;53.474;9.894;2022-12-07T15:05:42;1.17;;;0.77;;
12818;SDS011;6474;53.474;9.894;2022-12-07T15:08:10;0.53;;;0.53;;
12818;SDS011;6474;53.474;9.894;2022-12-07T15:10:39;0.80;;;0.80;;
12818;SDS011;6474;53.474;9.894;2022-12-07T15:13:07;0.17;;;0.17;;
12818;SDS011;6474;53.474;9.894;2022-12-07T15:15:54;4.53;;;0.90;;
12818;SDS011;6474;53.474;9.894;2022-12-07T15:18:23;0.37;;;0.37;;
12818;SDS011;6474;53.474;9.894;2022-12-07T15:20:51;0.57;;;0.57;;
12818;SDS011;6474;53.474;9.894;2022-12-07T15:23:19;2.47;;;0.90;;
12818;SDS011;6474;53.474;9.894;2022-12-07T15:25:47;0.50;;;0.40;;
12818;SDS011;6474;53.474;9.894;2022-12-07T15:28:16;0.33;;;0.33;;
12818;SDS011;6474;53.474;9.894;2022-12-07T15:30:44;3.60;;;1.00;;
12818;SDS011;6474;53.474;9.894;2022-12-07T15:33:13;0.40;;;0.40;;
12818;SDS011;6474;53.474;9.894;2022-12-07T15:35:41;0.87;;;0.53;;
12818;SDS011;6474;53.474;9.894;2022-12-07T15:38:10;0.37;;;0.30;;
12818;SDS011;6474;53.474;9.894;2022-12-07T15:40:38;0.63;;;0.63;;
12818;SDS011;6474;53.474;9.894;2022-12-07T15:43:07;0.60;;;0.60;;
12818;SDS011;6474;53.474;9.894;2022-12-07T15:45:56;0.77;;;0.67;;
12818;SDS011;6474;53.474;9.894;2022-12-07T15:48:24;0.13;;;0.13;;
12818;SDS011;6474;53.474;9.894;2022-12-07T15:51:00;0.40;;;0.40;;
12818;SDS011;6474;53.474;9.894;2022-12-07T15:53:29;0.67;;;0.57;;
12818;SDS011;6474;53.474;9.894;2022-12-07T15:55:57;0.37;;;0.37;;
12818;SDS011;6474;53.474;9.894;2022-12-07T15:58:24;0.13;;;0.13;;
12818;SDS011;6474;53.474;9.894;2022-12-07T16:00:52;0.40;;;0.40;;
12818;SDS011;6474;53.474;9.894;2022-12-07T16:03:20;1.60;;;0.80;;
12818;SDS011;6474;53.474;9.894;2022-12-07T16:05:49;0.23;;;0.23;;
12818;SDS011;6474;53.474;9.894;2022-12-07T16:08:18;0.10;;;0.10;;
12818;SDS011;6474;53.474;9.894;2022-12-07T16:10:46;0.50;;;0.50;;
12818;SDS011;6474;53.474;9.894;2022-12-07T16:13:14;1.13;;;1.13;;
12818;SDS011;6474;53.474;9.894;2022-12-07T16:15:41;1.03;;;1.03;;
12818;SDS011;6474;53.474;9.894;2022-12-07T16:18:09;1.20;;;0.90;;
12818;SDS011;6474;53.474;9.894;2022-12-07T16:20:37;0.50;;;0.50;;